Time;durP1;ratioP1;P1;durP2;ratioP2;P2;SDS_P1;SDS_P2;PMS_P1;PMS_P2;Temp;Humidity;BMP_temperature;BMP_pressure;BME280_temperature;BME280_humidity;BME280_pressure;Samples;Min_cycle;Max_cycle;Signal;HPM_P1;HPM_P2
2024/03/30 00:00:54;;;;;;;0.30;0.30;;;7.50;99.90;;;;;;4972831;28;20046;-77
2024/03/30 00:03:20;;;;;;;0.47;0.22;;;7.50;1.00;;;;;;4950460;28;20062;-77
2024/03/30 00:05:46;;;;;;;0.25;0.22;;;7.50;48.60;;;;;;4963023;28;20069;-77
2024/03/30 00:08:12;;;;;;;0.95;0.40;;;7.60;99.90;;;;;;4983069;28;20612;-78
2024/03/30 00:10:41;;;;;;;0.30;0.20;;;7.60;99.90;;;;;;4983359;28;20511;-77
2024/03/30 00:13:08;;;;;;;0.10;0.10;;;7.60;99.90;;;;;;4982870;28;20054;-78
2024/03/30 00:15:38;;;;;;;0.30;0.30;;;7.60;1.00;;;;;;4982945;28;20066;-77
2024/03/30 00:18:04;;;;;;;0.45;0.40;;;7.60;1.00;;;;;;4972760;28;20062;-77
2024/03/30 00:20:30;;;;;;;0.40;0.40;;;7.60;10.30;;;;;;4958323;28;20134;-77
2024/03/30 00:22:56;;;;;;;0.30;0.30;;;7.60;99.90;;;;;;4993894;28;20038;-77
2024/03/30 00:25:23;;;;;;;0.40;0.20;;;7.60;99.90;;;;;;4981202;28;20061;-77
2024/03/30 00:27:49;;;;;;;0.75;0.40;;;7.70;99.90;;;;;;4961013;28;20516;-78
2024/03/30 00:30:19;;;;;;;0.47;0.30;;;7.70;99.90;;;;;;4973839;28;20057;-77
2024/03/30 00:32:47;;;;;;;0.35;0.20;;;7.70;99.90;;;;;;4967589;28;20054;-77
2024/03/30 00:35:13;;;;;;;0.55;0.55;;;7.70;99.90;;;;;;4981624;28;20061;-77
2024/03/30 00:37:39;;;;;;;0.40;0.40;;;7.70;1.00;;;;;;4982829;28;20141;-77
2024/03/30 00:40:06;;;;;;;0.73;0.20;;;7.80;1.00;;;;;;4998477;28;20057;-77
2024/03/30 00:42:32;;;;;;;1.10;0.30;;;7.80;58.60;;;;;;4982497;28;20049;-77
2024/03/30 00:44:58;;;;;;;0.22;0.22;;;7.80;29.60;;;;;;4982378;28;20132;-77
2024/03/30 00:47:24;;;;;;;0.77;0.30;;;7.80;99.90;;;;;;4982495;28;20104;-77
2024/03/30 00:49:50;;;;;;;0.13;0.13;;;7.80;99.90;;;;;;4983225;28;20115;-77
2024/03/30 00:52:16;;;;;;;0.43;0.20;;;7.80;1.00;;;;;;4998884;28;20061;-77
2024/03/30 00:54:42;;;;;;;0.25;0.25;;;7.80;55.90;;;;;;4987824;28;20057;-77
2024/03/30 00:57:07;;;;;;;0.60;0.32;;;7.80;1.00;;;;;;4975678;28;20407;-77
2024/03/30 00:59:35;;;;;;;0.20;0.20;;;7.80;1.00;;;;;;4949313;28;20272;-77
2024/03/30 01:02:00;;;;;;;0.22;0.22;;;7.70;49.30;;;;;;4981755;28;20061;-76
2024/03/30 01:04:27;;;;;;;1.02;0.30;;;7.80;33.60;;;;;;4954399;28;20054;-77
2024/03/30 01:06:53;;;;;;;0.63;0.30;;;7.70;1.00;;;;;;4968421;28;20481;-76
2024/03/30 01:09:19;;;;;;;0.30;0.20;;;7.70;1.00;;;;;;4971220;28;20058;-77
2024/03/30 01:11:45;;;;;;;0.68;0.30;;;7.70;1.00;;;;;;4975894;28;20046;-77
2024/03/30 01:14:13;;;;;;;0.32;0.20;;;7.60;1.00;;;;;;4952768;28;20081;-78
2024/03/30 01:16:39;;;;;;;0.20;0.20;;;7.60;18.70;;;;;;4981043;28;20046;-77
2024/03/30 01:19:06;;;;;;;0.32;0.20;;;7.60;10.60;;;;;;4978489;28;20061;-78
2024/03/30 01:21:32;;;;;;;0.20;0.20;;;7.60;46.40;;;;;;4980341;28;20529;-78
2024/03/30 01:23:59;;;;;;;0.20;0.20;;;7.60;53.50;;;;;;5017266;28;20054;-78
2024/03/30 01:26:25;;;;;;;0.40;0.20;;;7.50;1.00;;;;;;4977129;28;20065;-78
2024/03/30 01:28:51;;;;;;;0.20;0.20;;;7.50;69.00;;;;;;4973066;28;20077;-78
2024/03/30 01:31:17;;;;;;;0.10;0.10;;;7.50;47.00;;;;;;4969696;28;20081;-78
2024/03/30 01:33:43;;;;;;;0.10;0.10;;;7.40;6.90;;;;;;4998218;28;20103;-78
2024/03/30 01:36:09;;;;;;;0.85;0.32;;;7.40;1.00;;;;;;4996809;28;20046;-78
2024/03/30 01:38:34;;;;;;;0.20;0.20;;;7.30;1.00;;;;;;4970229;28;20764;-78
2024/03/30 01:41:00;;;;;;;0.30;0.13;;;7.30;1.00;;;;;;4971043;28;20144;-78
2024/03/30 01:43:26;;;;;;;0.25;0.25;;;7.30;1.00;;;;;;4963358;28;20092;-78
2024/03/30 01:45:53;;;;;;;0.43;0.30;;;7.20;1.00;;;;;;4966094;28;20523;-78
2024/03/30 01:48:20;;;;;;;0.20;0.20;;;7.20;99.90;;;;;;4979370;28;20054;-78
2024/03/30 01:50:46;;;;;;;0.45;0.28;;;7.20;1.00;;;;;;4980290;28;20058;-78
2024/03/30 01:53:13;;;;;;;0.28;0.28;;;7.10;99.90;;;;;;4974128;28;20549;-78
2024/03/30 01:55:40;;;;;;;0.17;0.13;;;7.10;99.90;;;;;;4958608;28;20054;-77
2024/03/30 01:58:06;;;;;;;0.73;0.52;;;7.00;99.90;;;;;;4962758;28;20049;-78
2024/03/30 02:00:32;;;;;;;0.28;0.17;;;7.00;99.90;;;;;;4980919;28;20049;-78
2024/03/30 02:02:58;;;;;;;0.20;0.20;;;7.00;99.90;;;;;;4981371;28;20054;-78
2024/03/30 02:05:24;;;;;;;0.20;0.20;;;6.90;99.90;;;;;;4964456;28;20049;-78
2024/03/30 02:07:50;;;;;;;0.20;0.20;;;6.90;99.90;;;;;;4980382;28;20061;-78
2024/03/30 02:10:16;;;;;;;0.43;0.43;;;6.90;99.90;;;;;;4981520;28;20049;-78
2024/03/30 02:12:41;;;;;;;0.20;0.20;;;6.90;1.00;;;;;;4965066;28;20055;-78
2024/03/30 02:15:08;;;;;;;0.20;0.20;;;6.80;1.00;;;;;;4980960;28;20446;-78
2024/03/30 02:17:34;;;;;;;0.28;0.28;;;6.80;99.90;;;;;;4973897;28;20653;-78
2024/03/30 02:20:00;;;;;;;0.10;0.10;;;6.80;1.00;;;;;;4994284;28;20048;-78
2024/03/30 02:22:25;;;;;;;0.15;0.15;;;6.80;1.00;;;;;;4985387;28;20828;-77
2024/03/30 02:24:51;;;;;;;0.10;0.10;;;6.80;1.00;;;;;;4972433;28;20466;-78
2024/03/30 02:27:17;;;;;;;0.30;0.20;;;6.80;1.00;;;;;;4995244;28;20061;-78
2024/03/30 02:29:45;;;;;;;0.75;0.10;;;6.80;1.00;;;;;;4992106;28;20410;-78
2024/03/30 02:32:12;;;;;;;0.10;0.10;;;6.80;97.70;;;;;;4979658;28;20046;-77
2024/03/30 02:34:38;;;;;;;0.30;0.20;;;6.90;99.90;;;;;;4983524;28;20750;-78
2024/03/30 02:37:04;;;;;;;0.32;0.17;;;6.90;99.90;;;;;;4983592;28;20136;-78
2024/03/30 02:39:30;;;;;;;0.28;0.20;;;6.90;99.90;;;;;;4963978;28;20130;-78
2024/03/30 02:41:56;;;;;;;0.10;0.10;;;7.00;99.90;;;;;;4987842;28;20062;-78
2024/03/30 02:44:21;;;;;;;0.28;0.20;;;7.00;99.90;;;;;;4973155;28;20049;-78
2024/03/30 02:46:47;;;;;;;0.20;0.20;;;7.00;99.90;;;;;;4981799;28;20235;-78
2024/03/30 02:49:14;;;;;;;0.40;0.30;;;7.00;1.00;;;;;;4982557;28;20061;-78
2024/03/30 02:51:40;;;;;;;0.20;0.20;;;7.10;99.90;;;;;;4964515;28;20588;-78
2024/03/30 02:54:07;;;;;;;0.13;0.10;;;7.10;99.90;;;;;;4960777;28;20122;-77
2024/03/30 02:56:33;;;;;;;0.70;0.20;;;7.10;1.00;;;;;;4946279;28;20894;-77
2024/03/30 02:58:59;;;;;;;0.40;0.30;;;7.10;1.00;;;;;;4963240;28;20050;-78
2024/03/30 03:01:25;;;;;;;1.30;0.75;;;7.10;1.00;;;;;;4963552;28;20069;-77
2024/03/30 03:03:52;;;;;;;0.25;0.25;;;7.00;1.00;;;;;;4980481;28;20061;-78
2024/03/30 03:06:19;;;;;;;0.20;0.20;;;7.00;1.00;;;;;;4964209;28;20054;-77
2024/03/30 03:08:44;;;;;;;0.82;0.20;;;7.00;1.00;;;;;;4963023;28;20077;-78
2024/03/30 03:11:10;;;;;;;0.40;0.40;;;7.00;99.90;;;;;;4947844;28;20062;-78
2024/03/30 03:13:37;;;;;;;0.25;0.25;;;6.90;1.00;;;;;;4948646;28;20073;-77
2024/03/30 03:16:06;;;;;;;0.10;0.10;;;6.90;1.00;;;;;;4979700;28;20317;-77
2024/03/30 03:18:31;;;;;;;0.57;0.30;;;6.90;1.00;;;;;;4949433;28;20130;-78
2024/03/30 03:20:57;;;;;;;0.13;0.13;;;6.90;1.00;;;;;;4947543;28;20149;-78
2024/03/30 03:23:27;;;;;;;0.45;0.30;;;6.90;1.00;;;;;;4961233;28;20535;-78
2024/03/30 03:25:53;;;;;;;0.40;0.40;;;6.80;99.90;;;;;;4962475;28;20145;-77
2024/03/30 03:28:19;;;;;;;0.30;0.20;;;6.80;99.90;;;;;;4962465;28;20400;-78
2024/03/30 03:30:46;;;;;;;0.30;0.20;;;6.70;99.90;;;;;;4980828;28;20070;-77
2024/03/30 03:33:11;;;;;;;0.73;0.20;;;6.70;99.90;;;;;;4974775;28;20067;-78
2024/03/30 03:35:37;;;;;;;0.10;0.10;;;6.60;99.90;;;;;;4956370;28;20830;-78
2024/03/30 03:38:03;;;;;;;0.32;0.25;;;6.60;99.90;;;;;;4977900;28;20569;-78
2024/03/30 03:40:29;;;;;;;0.70;0.30;;;6.50;99.90;;;;;;4978712;28;20043;-78
2024/03/30 03:42:55;;;;;;;0.20;0.20;;;6.50;99.90;;;;;;4982848;28;20054;-78
2024/03/30 03:45:21;;;;;;;0.20;0.13;;;6.50;99.90;;;;;;4983866;28;20062;-78
2024/03/30 03:47:46;;;;;;;0.20;0.20;;;6.40;99.90;;;;;;4966632;28;20442;-78
2024/03/30 03:50:12;;;;;;;0.20;0.20;;;6.40;99.90;;;;;;4982008;28;20059;-78
2024/03/30 03:52:38;;;;;;;0.35;0.28;;;6.30;99.90;;;;;;4990283;28;20061;-77
2024/03/30 03:55:05;;;;;;;0.10;0.10;;;6.30;99.90;;;;;;5006577;28;20054;-78
2024/03/30 03:57:31;;;;;;;0.28;0.28;;;6.20;99.90;;;;;;4988250;28;20846;-78
2024/03/30 03:59:56;;;;;;;0.20;0.20;;;6.20;99.90;;;;;;4990501;28;20064;-78
2024/03/30 04:02:23;;;;;;;0.45;0.30;;;6.20;99.90;;;;;;5006999;28;20057;-78
2024/03/30 04:04:50;;;;;;;0.20;0.20;;;6.20;99.90;;;;;;4981777;28;20068;-78
2024/03/30 04:07:17;;;;;;;0.32;0.20;;;6.20;99.90;;;;;;4985514;28;20053;-78
2024/03/30 04:09:42;;;;;;;0.30;0.20;;;6.10;99.90;;;;;;5006685;28;20068;-78
2024/03/30 04:12:08;;;;;;;0.55;0.17;;;6.10;99.90;;;;;;4955985;28;20042;-78
2024/03/30 04:14:34;;;;;;;0.17;0.17;;;6.10;99.90;;;;;;4974891;28;20088;-78
2024/03/30 04:17:00;;;;;;;1.15;0.30;;;6.10;99.90;;;;;;4992052;28;20068;-78
2024/03/30 04:19:26;;;;;;;0.10;0.10;;;6.10;99.90;;;;;;5007631;28;20150;-78
2024/03/30 04:21:56;;;;;;;0.77;0.30;;;6.10;99.90;;;;;;5008684;28;20097;-78
2024/03/30 04:24:22;;;;;;;0.30;0.20;;;6.10;99.90;;;;;;4991571;28;20103;-78
2024/03/30 04:26:48;;;;;;;0.20;0.20;;;6.00;99.90;;;;;;4990907;28;20049;-78
2024/03/30 04:29:14;;;;;;;0.63;0.30;;;6.10;99.90;;;;;;5007738;28;20610;-78
2024/03/30 04:31:40;;;;;;;0.35;0.30;;;6.00;99.90;;;;;;4992701;28;20091;-78
2024/03/30 04:34:06;;;;;;;0.30;0.30;;;6.00;49.00;;;;;;4968890;28;20053;-78
2024/03/30 04:36:31;;;;;;;1.30;0.40;;;6.00;99.90;;;;;;4990537;28;20077;-78
2024/03/30 04:38:57;;;;;;;0.32;0.30;;;6.00;99.90;;;;;;4990335;28;20053;-78
2024/03/30 04:41:23;;;;;;;0.20;0.20;;;6.00;99.90;;;;;;4990678;28;20053;-78
2024/03/30 04:43:49;;;;;;;0.17;0.17;;;6.00;91.50;;;;;;4999927;28;20629;-78
2024/03/30 04:46:15;;;;;;;0.20;0.20;;;6.00;20.70;;;;;;4975659;28;20065;-77
2024/03/30 04:48:41;;;;;;;0.20;0.20;;;6.00;1.00;;;;;;4990000;28;20088;-78
2024/03/30 04:51:06;;;;;;;0.65;0.20;;;6.00;1.00;;;;;;5006694;28;20080;-78
2024/03/30 04:53:33;;;;;;;0.10;0.10;;;6.00;1.00;;;;;;4990900;28;20088;-78
2024/03/30 04:56:00;;;;;;;0.10;0.10;;;6.00;1.00;;;;;;4991618;28;20140;-78
2024/03/30 04:58:27;;;;;;;0.10;0.10;;;6.00;1.00;;;;;;4989635;28;20049;-78
2024/03/30 05:00:53;;;;;;;0.10;0.10;;;6.00;1.00;;;;;;4972745;28;20049;-78
2024/03/30 05:03:19;;;;;;;0.20;0.20;;;6.00;1.00;;;;;;4991741;28;20049;-78
2024/03/30 05:05:46;;;;;;;0.10;0.10;;;6.00;1.00;;;;;;4991189;28;20049;-78
2024/03/30 05:08:12;;;;;;;0.47;0.10;;;6.00;24.20;;;;;;5022972;28;20057;-77
2024/03/30 05:10:39;;;;;;;0.10;0.10;;;6.00;99.90;;;;;;4959245;28;20440;-78
2024/03/30 05:13:05;;;;;;;0.22;0.20;;;6.00;80.30;;;;;;5007775;28;20045;-78
2024/03/30 05:15:38;;;;;;;0.13;0.13;;;6.00;8.90;;;;;;4999487;28;20053;-78
2024/03/30 05:18:04;;;;;;;;;;;6.00;13.30;;;;;;4981964;28;20069;-78
2024/03/30 05:23:28;;;;;;;0.10;0.10;;;6.00;99.90;;;;;;5000800;28;20053;-78
2024/03/30 05:25:58;;;;;;;0.10;0.10;;;6.00;99.90;;;;;;4989438;28;20542;-78
2024/03/30 05:28:25;;;;;;;0.10;0.10;;;6.00;98.80;;;;;;4970712;28;20070;-77
2024/03/30 05:30:52;;;;;;;0.20;0.17;;;6.00;39.90;;;;;;4978237;28;20046;-78
2024/03/30 05:33:19;;;;;;;0.17;0.17;;;6.00;1.00;;;;;;4961885;28;20053;-78
2024/03/30 05:35:48;;;;;;;0.20;0.17;;;6.00;17.90;;;;;;4987665;28;20408;-78
2024/03/30 05:38:15;;;;;;;0.10;0.10;;;6.00;77.90;;;;;;4977895;28;20088;-78
2024/03/30 05:40:41;;;;;;;0.38;0.30;;;6.00;99.90;;;;;;4981192;28;20080;-78
2024/03/30 05:43:07;;;;;;;0.25;0.20;;;6.00;9.20;;;;;;5007343;28;20084;-78
2024/03/30 05:45:33;;;;;;;0.15;0.15;;;6.00;76.90;;;;;;5019290;28;20045;-78
2024/03/30 05:47:59;;;;;;;0.20;0.20;;;6.00;15.00;;;;;;4983561;28;20053;-78
2024/03/30 05:50:26;;;;;;;0.20;0.20;;;6.00;95.30;;;;;;4981838;28;20054;-78
2024/03/30 05:52:52;;;;;;;0.30;0.20;;;6.00;37.40;;;;;;4987582;28;20068;-78
2024/03/30 05:55:18;;;;;;;0.50;0.30;;;6.00;99.90;;;;;;4979635;28;20061;-78
2024/03/30 05:57:44;;;;;;;0.15;0.15;;;6.00;99.90;;;;;;4971770;28;20049;-77
2024/03/30 06:00:11;;;;;;;0.20;0.20;;;6.00;99.90;;;;;;4978152;28;20053;-78
2024/03/30 06:02:44;;;;;;;0.20;0.20;;;6.10;99.90;;;;;;4993670;28;20049;-78
2024/03/30 06:05:10;;;;;;;0.38;0.28;;;6.10;99.90;;;;;;4967259;28;20057;-78
2024/03/30 06:07:36;;;;;;;0.30;0.20;;;6.10;99.90;;;;;;4995395;28;20138;-78
2024/03/30 06:10:03;;;;;;;0.10;0.10;;;6.20;99.90;;;;;;4965268;28;20049;-78
2024/03/30 06:12:29;;;;;;;0.57;0.30;;;6.20;99.90;;;;;;4963453;28;20069;-78
2024/03/30 06:14:56;;;;;;;0.20;0.20;;;6.30;99.90;;;;;;4966325;28;20050;-78
2024/03/30 06:17:22;;;;;;;0.20;0.20;;;6.20;99.90;;;;;;4975937;28;20068;-77
2024/03/30 06:19:49;;;;;;;0.47;0.32;;;6.20;99.90;;;;;;4993453;28;20724;-78
2024/03/30 06:22:15;;;;;;;0.60;0.20;;;6.30;99.90;;;;;;4979408;28;20500;-74
2024/03/30 06:24:42;;;;;;;0.10;0.10;;;6.30;99.90;;;;;;4995708;28;20057;-74
2024/03/30 06:27:09;;;;;;;0.52;0.32;;;6.30;99.90;;;;;;4997668;28;20188;-72
2024/03/30 06:29:35;;;;;;;0.38;0.20;;;6.40;99.90;;;;;;4966746;28;20146;-73
2024/03/30 06:32:01;;;;;;;0.20;0.20;;;6.40;99.90;;;;;;5009322;28;20093;-74
2024/03/30 06:34:27;;;;;;;0.32;0.30;;;6.40;99.90;;;;;;4993304;28;20048;-72
2024/03/30 06:36:54;;;;;;;0.20;0.20;;;6.50;99.90;;;;;;4996457;28;20081;-73
2024/03/30 06:39:20;;;;;;;0.20;0.20;;;6.50;92.00;;;;;;4993114;28;20124;-72
2024/03/30 06:44:31;;;;;;;0.22;0.22;;;6.60;99.90;;;;;;4978252;28;20053;-75
2024/03/30 06:46:58;;;;;;;0.32;0.32;;;6.60;99.90;;;;;;4973704;28;20060;-74
2024/03/30 06:49:24;;;;;;;0.20;0.20;;;6.70;99.90;;;;;;4996016;28;20490;-71
2024/03/30 06:51:50;;;;;;;0.30;0.30;;;6.70;99.90;;;;;;4977384;28;20054;-74
2024/03/30 06:54:16;;;;;;;0.22;0.22;;;6.80;99.90;;;;;;4975810;28;20054;-73
2024/03/30 06:56:42;;;;;;;0.25;0.25;;;6.90;99.90;;;;;;4955840;28;20050;-74
2024/03/30 06:59:08;;;;;;;0.40;0.20;;;6.90;48.10;;;;;;4977425;28;20137;-74
2024/03/30 07:01:34;;;;;;;0.10;0.10;;;7.00;99.90;;;;;;4958073;28;20054;-75
2024/03/30 07:04:00;;;;;;;0.20;0.20;;;7.10;99.90;;;;;;4972632;28;20994;-74
2024/03/30 07:06:26;;;;;;;0.32;0.32;;;7.20;99.10;;;;;;4973478;28;20050;-74
2024/03/30 07:08:59;;;;;;;0.22;0.20;;;7.30;89.90;;;;;;4961015;28;20133;-73
2024/03/30 07:11:25;;;;;;;0.30;0.30;;;7.40;54.80;;;;;;4974847;28;20042;-74
2024/03/30 07:13:51;;;;;;;0.20;0.20;;;7.40;7.70;;;;;;4973284;28;20427;-74
2024/03/30 07:16:17;;;;;;;0.50;0.50;;;7.50;20.40;;;;;;4953980;28;20110;-74
2024/03/30 07:18:44;;;;;;;0.30;0.30;;;7.60;30.00;;;;;;4974946;28;20509;-75
2024/03/30 07:21:10;;;;;;;0.30;0.30;;;7.70;1.00;;;;;;4942396;28;20050;-74
2024/03/30 07:23:39;;;;;;;0.47;0.28;;;7.80;99.90;;;;;;4960684;28;20042;-73
2024/03/30 07:26:09;;;;;;;0.20;0.20;;;7.80;99.90;;;;;;4958979;28;20284;-74
2024/03/30 07:28:36;;;;;;;0.38;0.30;;;7.90;99.90;;;;;;4975007;28;20133;-73
2024/03/30 07:31:06;;;;;;;0.35;0.28;;;7.90;99.90;;;;;;4960300;28;20057;-74
2024/03/30 07:33:33;;;;;;;0.77;0.30;;;8.00;99.90;;;;;;4958488;28;20533;-74
2024/03/30 07:36:03;;;;;;;1.00;0.50;;;8.10;99.90;;;;;;4953068;28;20055;-74
2024/03/30 07:38:32;;;;;;;0.25;0.25;;;8.20;99.90;;;;;;4922636;28;20054;-74
2024/03/30 07:40:59;;;;;;;0.20;0.20;;;8.30;99.90;;;;;;4956215;28;20450;-75
2024/03/30 07:43:25;;;;;;;0.68;0.40;;;8.50;99.90;;;;;;4938050;28;20042;-75
2024/03/30 07:45:55;;;;;;;0.20;0.20;;;8.60;99.90;;;;;;4951610;28;20062;-73
2024/03/30 07:48:24;;;;;;;0.38;0.30;;;8.70;23.60;;;;;;4967436;28;20403;-74
2024/03/30 07:50:51;;;;;;;0.43;0.30;;;8.80;1.00;;;;;;4957024;28;20125;-74
2024/03/30 07:53:16;;;;;;;0.35;0.28;;;8.90;1.00;;;;;;4992849;28;20062;-74
2024/03/30 07:55:42;;;;;;;0.90;0.30;;;9.00;1.00;;;;;;4975426;28;20061;-74
2024/03/30 07:58:08;;;;;;;0.20;0.20;;;9.00;99.90;;;;;;4995856;28;20088;-74
2024/03/30 08:00:34;;;;;;;0.32;0.30;;;9.20;99.90;;;;;;4990280;28;20054;-74
2024/03/30 08:03:01;;;;;;;0.20;0.20;;;9.20;99.90;;;;;;4991071;28;20936;-74
2024/03/30 08:05:28;;;;;;;0.20;0.20;;;9.30;1.00;;;;;;4990602;28;20413;-75
2024/03/30 08:07:54;;;;;;;0.40;0.40;;;9.40;1.00;;;;;;4989313;28;20453;-74
2024/03/30 08:10:20;;;;;;;0.20;0.20;;;9.50;1.00;;;;;;4989824;28;20085;-74
2024/03/30 08:12:46;;;;;;;0.40;0.40;;;9.60;1.00;;;;;;4989031;28;20057;-74
2024/03/30 08:15:12;;;;;;;0.50;0.30;;;9.70;99.90;;;;;;4994203;28;20057;-74
2024/03/30 08:17:38;;;;;;;0.82;0.40;;;9.70;99.90;;;;;;4991883;28;20357;-74
2024/03/30 08:20:04;;;;;;;0.20;0.20;;;9.80;99.90;;;;;;4959556;28;20147;-74
2024/03/30 08:22:31;;;;;;;0.55;0.40;;;9.90;99.90;;;;;;4995203;28;20069;-75
2024/03/30 08:24:56;;;;;;;0.22;0.22;;;10.00;99.90;;;;;;4958323;28;20079;-76
2024/03/30 08:27:22;;;;;;;0.30;0.30;;;10.10;99.90;;;;;;4965418;28;20149;-75
2024/03/30 08:29:49;;;;;;;0.45;0.30;;;10.20;99.90;;;;;;4964476;28;20400;-74
2024/03/30 08:32:15;;;;;;;0.40;0.30;;;10.30;29.60;;;;;;4982092;28;20046;-75
2024/03/30 08:34:41;;;;;;;0.25;0.25;;;10.40;26.30;;;;;;4980464;28;20057;-75
2024/03/30 08:37:07;;;;;;;0.47;0.38;;;10.50;1.00;;;;;;4998174;28;20049;-74
2024/03/30 08:39:33;;;;;;;0.30;0.30;;;10.60;1.00;;;;;;4992641;28;20062;-74
2024/03/30 08:41:58;;;;;;;0.45;0.30;;;10.70;99.90;;;;;;4998575;28;20056;-74
2024/03/30 08:44:24;;;;;;;0.55;0.40;;;10.80;99.90;;;;;;4997314;28;20404;-74
2024/03/30 08:46:50;;;;;;;0.28;0.20;;;10.90;99.90;;;;;;4992841;28;20109;-74
2024/03/30 08:49:16;;;;;;;0.30;0.30;;;11.00;99.90;;;;;;4993607;28;20545;-75
2024/03/30 08:51:42;;;;;;;0.20;0.20;;;10.90;99.90;;;;;;4992227;28;20367;-74
2024/03/30 08:54:08;;;;;;;0.20;0.20;;;11.00;99.90;;;;;;4991827;28;20115;-75
2024/03/30 08:56:35;;;;;;;0.30;0.30;;;11.00;99.90;;;;;;4995007;28;20521;-74
2024/03/30 08:59:01;;;;;;;0.98;0.30;;;11.00;99.90;;;;;;4981761;28;20444;-75
2024/03/30 09:01:31;;;;;;;0.32;0.30;;;11.10;99.90;;;;;;4960488;28;20050;-76
2024/03/30 09:03:57;;;;;;;0.57;0.25;;;11.10;99.90;;;;;;4979481;28;20045;-82
2024/03/30 09:06:23;;;;;;;0.30;0.30;;;11.20;99.90;;;;;;4976258;28;20445;-81
2024/03/30 09:08:49;;;;;;;0.57;0.30;;;11.20;99.90;;;;;;4947772;28;20074;-81
2024/03/30 09:11:15;;;;;;;0.55;0.30;;;11.30;99.90;;;;;;4995097;28;20064;-81
2024/03/30 09:13:42;;;;;;;0.17;0.17;;;11.40;99.90;;;;;;4962094;28;20054;-79
2024/03/30 09:16:08;;;;;;;0.38;0.30;;;11.60;99.90;;;;;;4972839;28;20543;-80
2024/03/30 09:18:34;;;;;;;1.63;0.35;;;11.70;98.90;;;;;;4978197;28;20561;-80
2024/03/30 09:21:02;;;;;;;0.35;0.30;;;11.70;69.40;;;;;;4957518;28;20058;-80
2024/03/30 09:23:28;;;;;;;1.38;0.35;;;11.80;63.60;;;;;;4977178;28;20516;-79
2024/03/30 09:25:55;;;;;;;0.43;0.30;;;11.90;46.20;;;;;;4963706;28;20049;-77
2024/03/30 09:28:20;;;;;;;0.30;0.30;;;12.10;43.00;;;;;;4981015;28;20114;-80
2024/03/30 09:30:47;;;;;;;0.10;0.10;;;12.20;30.40;;;;;;4962537;28;20249;-80
2024/03/30 09:33:13;;;;;;;0.20;0.20;;;12.30;36.90;;;;;;4965311;28;20061;-79
2024/03/30 09:35:39;;;;;;;1.48;0.40;;;12.50;35.60;;;;;;4976867;28;20058;-80
2024/03/30 09:38:05;;;;;;;0.35;0.15;;;12.60;36.10;;;;;;4964029;28;20590;-79
2024/03/30 09:40:33;;;;;;;1.45;0.32;;;12.70;28.40;;;;;;4964377;28;20121;-80
2024/03/30 09:43:02;;;;;;;0.55;0.30;;;12.80;24.60;;;;;;4977309;28;20053;-80
2024/03/30 09:45:28;;;;;;;1.08;0.30;;;12.90;20.10;;;;;;4950863;28;20050;-80
2024/03/30 09:48:01;;;;;;;0.57;0.30;;;13.00;15.90;;;;;;4978338;28;20080;-81
2024/03/30 09:50:26;;;;;;;0.80;0.30;;;13.10;6.60;;;;;;4979570;28;20112;-81
2024/03/30 09:52:53;;;;;;;0.20;0.20;;;13.30;1.00;;;;;;4976716;28;20042;-81
2024/03/30 09:55:19;;;;;;;0.47;0.30;;;13.40;1.00;;;;;;4983000;28;20060;-80
2024/03/30 09:57:50;;;;;;;0.63;0.30;;;13.40;1.00;;;;;;4967427;28;20057;-79
2024/03/30 10:00:17;;;;;;;0.45;0.20;;;13.50;8.20;;;;;;4983949;28;20068;-78
2024/03/30 10:02:45;;;;;;;0.38;0.20;;;13.70;1.00;;;;;;4972898;28;20302;-78
2024/03/30 10:05:11;;;;;;;0.57;0.40;;;13.80;1.00;;;;;;4969019;28;20508;-80
2024/03/30 10:07:59;;;;;;;0.55;0.40;;;14.00;1.00;;;;;;4969855;28;20487;-78
2024/03/30 10:10:25;;;;;;;1.38;0.40;;;14.10;1.00;;;;;;4985037;28;20045;-79
2024/03/30 10:12:55;;;;;;;0.20;0.20;;;14.30;1.00;;;;;;4970790;28;20722;-79
2024/03/30 10:15:46;;;;;;;0.80;0.38;;;14.50;1.00;;;;;;4957192;28;20737;-79
2024/03/30 10:18:12;;;;;;;0.57;0.40;;;14.70;1.00;;;;;;4986102;28;20053;-79
2024/03/30 10:20:39;;;;;;;0.30;0.30;;;14.90;1.00;;;;;;4999686;28;20107;-78
2024/03/30 10:23:05;;;;;;;0.47;0.40;;;15.10;1.00;;;;;;4995148;28;20477;-79
2024/03/30 10:25:34;;;;;;;0.45;0.30;;;15.40;1.00;;;;;;4966927;28;20053;-78
2024/03/30 10:28:02;;;;;;;0.80;0.20;;;15.50;1.00;;;;;;4981408;28;20045;-78
2024/03/30 10:30:28;;;;;;;0.28;0.20;;;15.50;1.00;;;;;;4982175;28;20065;-79
2024/03/30 10:32:54;;;;;;;1.00;0.30;;;15.40;1.00;;;;;;4971079;28;20080;-79
2024/03/30 10:35:21;;;;;;;0.70;0.30;;;15.30;1.00;;;;;;4998793;28;20038;-80
2024/03/30 10:37:51;;;;;;;0.22;0.20;;;15.20;1.00;;;;;;5000510;28;20049;-79
2024/03/30 10:40:18;;;;;;;0.17;0.15;;;15.20;1.00;;;;;;4970201;28;20056;-80
2024/03/30 10:42:43;;;;;;;0.65;0.20;;;15.20;1.00;;;;;;4952873;28;20054;-78
2024/03/30 10:45:10;;;;;;;0.55;0.28;;;15.20;1.00;;;;;;4987153;28;20468;-78
2024/03/30 10:47:39;;;;;;;0.63;0.55;;;15.30;1.00;;;;;;4973199;28;20052;-78
2024/03/30 10:50:06;;;;;;;0.20;0.20;;;15.40;1.00;;;;;;4969361;28;20068;-79
2024/03/30 10:52:32;;;;;;;0.30;0.20;;;15.60;1.00;;;;;;4987300;28;20725;-79
2024/03/30 10:55:00;;;;;;;0.40;0.20;;;15.80;1.00;;;;;;4986798;28;20065;-79
2024/03/30 10:57:26;;;;;;;0.57;0.40;;;15.70;1.00;;;;;;4986645;28;20405;-79
2024/03/30 10:59:52;;;;;;;0.40;0.20;;;15.70;1.00;;;;;;4988802;28;20048;-79
2024/03/30 11:02:20;;;;;;;0.15;0.15;;;15.60;1.00;;;;;;4985058;28;20053;-79
2024/03/30 11:04:46;;;;;;;0.20;0.20;;;15.60;1.00;;;;;;4968832;28;20505;-78
2024/03/30 11:07:12;;;;;;;1.65;0.30;;;15.60;1.00;;;;;;4976378;28;20061;-79
2024/03/30 11:09:44;;;;;;;0.20;0.20;;;15.50;1.00;;;;;;4961321;28;20061;-79
2024/03/30 11:12:11;;;;;;;0.20;0.20;;;15.60;1.00;;;;;;4981469;28;20103;-79
2024/03/30 11:14:37;;;;;;;0.35;0.20;;;15.70;1.00;;;;;;4998188;28;20060;-80
2024/03/30 11:17:30;;;;;;;0.10;0.10;;;15.90;1.00;;;;;;4956043;28;20045;-80
2024/03/30 11:20:12;;;;;;;0.30;0.30;;;16.10;1.00;;;;;;4978799;28;20164;-80
2024/03/30 11:22:55;;;;;;;0.15;0.13;;;16.20;1.00;;;;;;4966873;28;20049;-80
2024/03/30 11:25:23;;;;;;;0.20;0.20;;;16.30;1.00;;;;;;4981205;28;20056;-80
2024/03/30 11:27:54;;;;;;;0.17;0.17;;;16.40;1.00;;;;;;4982133;28;20045;-80
2024/03/30 11:30:25;;;;;;;0.10;0.10;;;16.40;1.00;;;;;;4988572;28;20058;-80
2024/03/30 11:32:58;;;;;;;0.10;0.10;;;16.30;1.00;;;;;;4988681;28;20127;-79
2024/03/30 11:35:27;;;;;;;0.20;0.20;;;16.30;1.00;;;;;;4973126;28;20540;-79
2024/03/30 11:37:55;;;;;;;0.75;0.30;;;16.20;1.00;;;;;;4986470;28;20048;-80
2024/03/30 11:40:44;;;;;;;0.40;0.35;;;16.10;1.00;;;;;;4970279;28;20532;-79
2024/03/30 11:43:23;;;;;;;0.30;0.30;;;16.00;1.00;;;;;;4985243;28;20049;-80
2024/03/30 11:45:49;;;;;;;1.15;0.45;;;16.10;1.00;;;;;;4971274;28;20060;-79
2024/03/30 11:48:15;;;;;;;0.45;0.30;;;16.10;1.00;;;;;;4986997;28;20049;-79
2024/03/30 11:50:41;;;;;;;0.15;0.10;;;16.20;1.00;;;;;;4987012;28;20155;-80
2024/03/30 11:53:18;;;;;;;0.25;0.20;;;16.40;1.00;;;;;;4966938;28;20045;-79
2024/03/30 11:55:45;;;;;;;0.30;0.30;;;16.70;1.00;;;;;;4970101;28;20053;-79
2024/03/30 11:58:23;;;;;;;0.90;0.40;;;17.00;1.00;;;;;;4980603;28;20050;-80
2024/03/30 12:00:58;;;;;;;0.70;0.40;;;17.30;1.00;;;;;;4965216;28;20058;-78
2024/03/30 12:03:24;;;;;;;0.90;0.40;;;17.30;1.00;;;;;;4985757;28;20061;-77
2024/03/30 12:05:53;;;;;;;0.20;0.20;;;17.20;1.00;;;;;;4987491;28;20045;-79
2024/03/30 12:08:23;;;;;;;0.30;0.30;;;17.00;1.00;;;;;;4968562;28;20041;-80
2024/03/30 12:10:56;;;;;;;0.60;0.30;;;17.20;1.00;;;;;;4990150;28;20053;-80
2024/03/30 12:13:26;;;;;;;0.20;0.20;;;17.40;1.00;;;;;;4981146;28;20049;-80
2024/03/30 12:15:53;;;;;;;0.95;0.30;;;17.50;1.00;;;;;;4975594;28;20140;-81
2024/03/30 12:18:19;;;;;;;0.20;0.20;;;17.80;1.00;;;;;;4966394;28;20061;-79
2024/03/30 12:20:47;;;;;;;0.60;0.30;;;18.10;1.00;;;;;;4967632;28;20083;-79
2024/03/30 12:23:14;;;;;;;0.57;0.30;;;18.10;1.00;;;;;;4987204;28;20789;-80
2024/03/30 12:25:41;;;;;;;0.38;0.30;;;18.00;1.00;;;;;;4983728;28;20057;-79
2024/03/30 12:28:07;;;;;;;0.52;0.30;;;18.40;1.00;;;;;;4970350;28;20069;-79
2024/03/30 12:30:48;;;;;;;0.95;0.30;;;18.60;1.00;;;;;;4956807;28;20053;-79
2024/03/30 12:33:14;;;;;;;0.60;0.43;;;18.70;1.00;;;;;;4970377;28;20049;-79
2024/03/30 12:35:44;;;;;;;1.13;0.50;;;19.10;1.00;;;;;;4974995;28;20071;-79
2024/03/30 12:38:13;;;;;;;0.40;0.32;;;19.30;1.00;;;;;;4999490;28;20067;-79
2024/03/30 12:40:39;;;;;;;0.65;0.45;;;19.70;1.00;;;;;;4978419;28;20073;-80
2024/03/30 12:43:05;;;;;;;0.40;0.32;;;19.90;1.00;;;;;;4955841;28;20053;-80
2024/03/30 12:45:31;;;;;;;0.50;0.40;;;20.50;1.00;;;;;;4963790;28;20049;-80
2024/03/30 12:47:57;;;;;;;0.55;0.40;;;20.90;1.00;;;;;;4953766;28;20441;-80
2024/03/30 12:50:24;;;;;;;0.38;0.30;;;20.90;1.00;;;;;;4969811;28;20053;-81
2024/03/30 12:52:50;;;;;;;0.30;0.30;;;21.20;1.00;;;;;;5020657;28;20060;-77
2024/03/30 12:55:17;;;;;;;0.63;0.40;;;21.50;1.00;;;;;;4984948;28;20057;-84
2024/03/30 12:57:44;;;;;;;0.30;0.30;;;21.90;1.00;;;;;;4953562;28;20053;-82
2024/03/30 13:00:17;;;;;;;0.57;0.30;;;22.10;1.00;;;;;;4969331;28;20046;-82
2024/03/30 13:02:59;;;;;;;0.38;0.30;;;22.40;1.00;;;;;;4971838;28;20116;-80